createdAt,value
2019-05-06T00:01:23.971Z,80.70
2019-05-06T00:03:50.475Z,79.90
2019-05-06T00:06:16.717Z,79.50
2019-05-06T00:08:43.975Z,78.90
2019-05-06T00:11:10.310Z,79.00
2019-05-06T00:13:36.613Z,80.00
2019-05-06T00:16:03.917Z,78.50
2019-05-06T00:18:30.423Z,78.60
2019-05-06T00:20:57.620Z,80.60
2019-05-06T00:23:24.967Z,80.00
2019-05-06T00:25:53.432Z,79.90
2019-05-06T00:28:19.811Z,79.60
2019-05-06T00:30:46.074Z,80.00
2019-05-06T00:33:13.558Z,80.80
2019-05-06T00:35:40.083Z,80.00
2019-05-06T00:38:07.517Z,80.30
2019-05-06T00:40:34.094Z,81.10
2019-05-06T00:43:00.494Z,80.40
2019-05-06T00:45:26.758Z,81.30
2019-05-06T00:47:53.610Z,81.20
2019-05-06T00:50:19.999Z,80.10
2019-05-06T00:52:46.271Z,81.20
2019-05-06T00:55:13.754Z,81.60
2019-05-06T00:57:40.175Z,81.30
2019-05-06T01:00:06.447Z,82.00
2019-05-06T01:02:34.240Z,81.90
2019-05-06T01:05:00.655Z,82.10
2019-05-06T01:07:26.975Z,83.60
2019-05-06T01:09:54.168Z,83.00
2019-05-06T01:12:20.875Z,84.40
2019-05-06T01:14:47.188Z,84.80
2019-05-06T01:17:13.514Z,85.00
2019-05-06T01:19:39.939Z,85.00
2019-05-06T01:22:06.199Z,85.80
2019-05-06T01:24:34.354Z,86.40
2019-05-06T01:27:00.458Z,85.50
2019-05-06T01:29:26.697Z,86.30
2019-05-06T01:31:54.400Z,86.90
2019-05-06T01:34:20.903Z,86.90
2019-05-06T01:36:47.167Z,87.00
2019-05-06T01:39:13.883Z,86.90
2019-05-06T01:41:40.364Z,87.20
2019-05-06T01:44:06.612Z,88.10
2019-05-06T01:46:33.966Z,88.30
2019-05-06T01:49:00.426Z,88.00
2019-05-06T01:51:26.699Z,87.30
2019-05-06T01:53:54.368Z,87.50
2019-05-06T01:56:20.987Z,87.10
2019-05-06T01:58:47.242Z,87.90
2019-05-06T02:01:14.759Z,88.90
2019-05-06T02:03:41.265Z,89.20
2019-05-06T02:06:07.550Z,89.60
2019-05-06T02:08:33.838Z,89.40
2019-05-06T02:11:00.098Z,89.60
2019-05-06T02:13:26.358Z,89.60
2019-05-06T02:15:54.642Z,90.00
2019-05-06T02:18:20.602Z,89.20
2019-05-06T02:20:46.838Z,90.20
2019-05-06T02:23:14.579Z,90.10
2019-05-06T02:25:41.058Z,90.40
2019-05-06T02:28:07.333Z,90.40
2019-05-06T02:30:36.451Z,90.10
2019-05-06T02:33:04.193Z,90.30
2019-05-06T02:35:29.606Z,90.00
2019-05-06T02:37:55.871Z,89.70
2019-05-06T02:40:24.870Z,90.00
2019-05-06T02:42:50.116Z,89.40
2019-05-06T02:45:16.392Z,90.00
2019-05-06T02:47:44.735Z,90.20
2019-05-06T02:50:13.338Z,90.30
2019-05-06T02:52:39.071Z,90.10
2019-05-06T02:55:06.427Z,90.40
2019-05-06T02:57:33.607Z,90.40
2019-05-06T03:00:00.159Z,90.10
2019-05-06T03:02:38.687Z,90.00
2019-05-06T03:04:54.454Z,90.00
2019-05-06T03:07:23.175Z,89.90
2019-05-06T03:09:48.685Z,89.50
2019-05-06T03:12:14.942Z,90.00
2019-05-06T03:14:43.697Z,90.10
2019-05-06T03:17:09.179Z,90.10
2019-05-06T03:19:35.447Z,90.00
2019-05-06T03:22:03.363Z,89.80
2019-05-06T03:24:32.927Z,89.60
2019-05-06T03:26:57.806Z,90.00
2019-05-06T03:29:25.288Z,90.10
2019-05-06T03:31:56.625Z,90.10
2019-05-06T03:34:38.463Z,90.30
2019-05-06T03:36:49.087Z,90.40
2019-05-06T03:39:15.751Z,90.50
2019-05-06T03:41:43.666Z,90.60
2019-05-06T03:44:10.035Z,90.60
2019-05-06T03:46:36.278Z,90.70
2019-05-06T03:49:03.719Z,90.60
2019-05-06T03:51:30.285Z,91.00
2019-05-06T03:53:57.108Z,91.20
2019-05-06T03:56:23.986Z,91.20
2019-05-06T03:58:53.348Z,91.00
2019-05-06T04:01:18.346Z,91.10
2019-05-06T04:03:51.398Z,91.40
2019-05-06T04:06:13.755Z,91.40
2019-05-06T04:08:43.487Z,91.70
2019-05-06T04:11:08.393Z,91.90
2019-05-06T04:13:34.659Z,91.60
2019-05-06T04:16:03.580Z,91.80
2019-05-06T04:18:29.010Z,91.90
2019-05-06T04:20:55.260Z,91.60
2019-05-06T04:23:23.357Z,91.70
2019-05-06T04:25:52.536Z,91.60
2019-05-06T04:28:17.487Z,91.30
2019-05-06T04:30:43.761Z,91.40
2019-05-06T04:33:16.308Z,91.10
2019-05-06T04:35:38.020Z,91.20
2019-05-06T04:38:04.270Z,91.30
2019-05-06T04:40:33.055Z,91.50
2019-05-06T04:42:58.517Z,91.30
2019-05-06T04:45:24.819Z,91.30
2019-05-06T04:47:53.767Z,91.40
2019-05-06T04:50:19.158Z,91.40
2019-05-06T04:52:45.414Z,91.40
2019-05-06T04:55:14.177Z,91.20
2019-05-06T04:57:39.668Z,91.20
2019-05-06T05:00:05.920Z,91.40
2019-05-06T05:02:33.728Z,91.20
2019-05-06T05:05:03.768Z,91.30
2019-05-06T05:07:28.307Z,91.40
2019-05-06T05:09:54.548Z,90.90
2019-05-06T05:12:22.686Z,90.70
2019-05-06T05:14:48.775Z,90.80
2019-05-06T05:17:15.124Z,90.60
2019-05-06T05:19:42.871Z,90.90
2019-05-06T05:22:09.323Z,90.60
2019-05-06T05:24:35.571Z,90.50
2019-05-06T05:27:03.184Z,90.30
2019-05-06T05:29:29.667Z,89.90
2019-05-06T05:31:55.950Z,88.70
2019-05-06T05:34:22.527Z,89.00
2019-05-06T05:36:52.001Z,88.70
2019-05-06T05:39:18.234Z,88.10
2019-05-06T05:41:44.517Z,87.70
2019-05-06T05:44:12.026Z,88.10
2019-05-06T05:46:38.435Z,87.80
2019-05-06T05:49:04.705Z,87.50
2019-05-06T05:51:32.042Z,87.00
2019-05-06T05:53:58.519Z,85.80
2019-05-06T05:56:24.762Z,85.20
2019-05-06T05:58:53.276Z,85.20
2019-05-06T06:01:19.041Z,85.30
2019-05-06T06:03:45.326Z,85.20
2019-05-06T06:06:12.657Z,85.00
2019-05-06T06:08:39.131Z,84.90
2019-05-06T06:11:05.416Z,84.40
2019-05-06T06:13:32.075Z,83.80
2019-05-06T06:15:58.520Z,83.30
2019-05-06T06:18:24.786Z,81.70
2019-05-06T06:20:52.804Z,81.60
2019-05-06T06:23:19.204Z,80.00
2019-05-06T06:25:45.489Z,80.10
2019-05-06T06:28:12.008Z,78.60
2019-05-06T06:30:38.322Z,78.90
2019-05-06T06:33:04.594Z,78.10
2019-05-06T06:35:32.397Z,78.20
2019-05-06T06:37:58.891Z,76.70
2019-05-06T06:40:25.158Z,75.80
2019-05-06T06:42:52.398Z,73.60
2019-05-06T06:45:18.948Z,70.80
2019-05-06T06:47:45.194Z,69.40
2019-05-06T06:50:13.759Z,69.10
2019-05-06T06:52:42.113Z,68.10
2019-05-06T06:55:08.030Z,68.10
2019-05-06T06:57:34.595Z,68.70
2019-05-06T07:00:03.902Z,68.30
2019-05-06T07:02:29.015Z,69.10
2019-05-06T07:04:55.289Z,66.40
2019-05-06T07:07:22.796Z,62.00
2019-05-06T07:09:49.220Z,58.10
2019-05-06T07:12:15.507Z,54.00
2019-05-06T07:14:42.834Z,52.90
2019-05-06T07:17:09.248Z,53.90
2019-05-06T07:19:35.494Z,54.20
2019-05-06T07:22:02.975Z,54.00
2019-05-06T07:24:29.309Z,51.40
2019-05-06T07:26:55.606Z,50.60
2019-05-06T07:29:26.274Z,48.20
2019-05-06T07:31:50.243Z,48.30
2019-05-06T07:34:16.479Z,49.80
2019-05-06T07:36:45.265Z,51.50
2019-05-06T07:39:15.161Z,53.20
2019-05-06T07:41:43.483Z,54.90
2019-05-06T07:44:07.506Z,56.30
2019-05-06T07:46:35.863Z,57.60
2019-05-06T07:49:03.325Z,58.60
2019-05-06T07:51:29.779Z,59.50
2019-05-06T07:53:56.036Z,57.70
2019-05-06T07:56:22.620Z,55.60
2019-05-06T07:58:48.966Z,54.30
2019-05-06T08:01:15.235Z,54.60
2019-05-06T08:03:42.871Z,54.00
2019-05-06T08:06:09.342Z,53.20
2019-05-06T08:08:35.615Z,54.20
2019-05-06T08:11:02.747Z,53.60
2019-05-06T08:13:29.216Z,54.80
2019-05-06T08:15:55.495Z,54.60
2019-05-06T08:18:21.989Z,56.20
2019-05-06T08:20:48.319Z,55.60
2019-05-06T08:23:16.642Z,54.00
2019-05-06T08:25:42.906Z,54.90
2019-05-06T08:28:09.247Z,54.80
2019-05-06T08:30:35.567Z,56.50
2019-05-06T08:33:02.318Z,58.10
2019-05-06T08:35:28.649Z,57.50
2019-05-06T08:37:54.938Z,56.30
2019-05-06T08:40:22.710Z,56.50
2019-05-06T08:42:49.197Z,58.30
2019-05-06T08:45:15.453Z,58.90
2019-05-06T08:47:42.614Z,59.40
2019-05-06T08:50:09.119Z,59.40
2019-05-06T08:52:35.399Z,61.00
2019-05-06T08:55:02.904Z,58.60
2019-05-06T08:57:29.641Z,58.00
2019-05-06T08:59:55.923Z,57.60
2019-05-06T09:02:22.845Z,57.40
2019-05-06T09:04:49.363Z,58.00
2019-05-06T09:07:15.603Z,58.70
2019-05-06T09:09:42.182Z,56.90
2019-05-06T09:12:08.730Z,57.30
2019-05-06T09:14:35.006Z,57.20
2019-05-06T09:17:02.948Z,57.50
2019-05-06T09:19:29.448Z,57.50
2019-05-06T09:21:55.747Z,56.30
2019-05-06T09:24:23.098Z,57.30
2019-05-06T09:26:52.026Z,56.30
2019-05-06T09:29:17.793Z,57.00
2019-05-06T09:31:44.058Z,57.60
2019-05-06T09:34:12.879Z,54.20
2019-05-06T09:36:43.763Z,51.20
2019-05-06T09:39:06.725Z,49.90
2019-05-06T09:41:32.975Z,53.00
2019-05-06T09:43:59.241Z,54.30
2019-05-06T09:46:25.510Z,53.70
2019-05-06T09:48:52.820Z,52.80
2019-05-06T09:51:19.316Z,51.20
2019-05-06T09:53:45.584Z,51.30
2019-05-06T09:56:13.199Z,52.80
2019-05-06T09:58:42.615Z,51.50
2019-05-06T10:01:07.677Z,48.70
2019-05-06T10:03:33.936Z,48.10
2019-05-06T10:06:02.551Z,48.10
2019-05-06T10:08:28.233Z,48.10
2019-05-06T10:10:59.557Z,47.40
2019-05-06T10:13:22.644Z,51.10
2019-05-06T10:15:48.933Z,49.30
2019-05-06T10:18:15.199Z,47.90
2019-05-06T10:20:42.737Z,49.70
2019-05-06T10:23:09.324Z,50.20
2019-05-06T10:25:35.601Z,49.10
2019-05-06T10:28:02.798Z,48.20
2019-05-06T10:30:29.318Z,47.60
2019-05-06T10:32:55.597Z,47.00
2019-05-06T10:35:23.193Z,47.30
2019-05-06T10:37:49.843Z,46.90
2019-05-06T10:40:16.098Z,46.80
2019-05-06T10:42:43.066Z,47.60
2019-05-06T10:45:09.367Z,46.80
2019-05-06T10:47:35.655Z,47.30
2019-05-06T10:50:02.268Z,48.80
2019-05-06T10:52:28.675Z,46.50
2019-05-06T10:54:54.930Z,45.50
2019-05-06T10:57:22.060Z,45.30
2019-05-06T10:59:48.572Z,46.70
2019-05-06T11:02:14.851Z,44.90
2019-05-06T11:04:42.613Z,45.60
2019-05-06T11:07:09.023Z,45.60
2019-05-06T11:09:35.286Z,45.90
2019-05-06T11:12:03.270Z,46.30
2019-05-06T11:14:29.543Z,47.50
2019-05-06T11:16:55.822Z,48.00
2019-05-06T11:19:22.441Z,47.30
2019-05-06T11:21:48.835Z,46.00
2019-05-06T11:24:15.139Z,45.80
2019-05-06T11:26:43.050Z,47.20
2019-05-06T11:29:09.568Z,47.20
2019-05-06T11:31:35.832Z,48.80
2019-05-06T11:34:02.161Z,47.30
2019-05-06T11:36:28.643Z,47.60
2019-05-06T11:38:57.086Z,46.50
2019-05-06T11:41:23.516Z,45.10
2019-05-06T11:43:52.105Z,46.60
2019-05-06T11:46:17.939Z,47.30
2019-05-06T11:48:44.229Z,43.60
2019-05-06T11:51:12.730Z,42.80
2019-05-06T11:53:40.607Z,44.60
2019-05-06T11:56:06.859Z,45.40
2019-05-06T11:58:33.153Z,45.40
2019-05-06T12:00:59.406Z,45.10
2019-05-06T12:03:25.686Z,44.30
2019-05-06T12:05:52.625Z,44.50
2019-05-06T12:08:19.045Z,46.80
2019-05-06T12:10:45.287Z,45.40
2019-05-06T12:13:12.245Z,43.90
2019-05-06T12:15:40.909Z,44.70
2019-05-06T12:18:07.356Z,48.50
2019-05-06T12:20:33.657Z,49.70
2019-05-06T12:23:03.856Z,48.70
2019-05-06T12:25:27.926Z,48.40
2019-05-06T12:27:54.181Z,47.50
2019-05-06T12:30:22.765Z,48.20
2019-05-06T12:32:48.473Z,48.70
2019-05-06T12:35:14.751Z,48.90
2019-05-06T12:37:41.036Z,48.40
2019-05-06T12:40:07.311Z,49.00
2019-05-06T12:42:35.619Z,49.50
2019-05-06T12:45:03.515Z,50.10
2019-05-06T12:47:32.643Z,50.70
2019-05-06T12:49:58.280Z,51.30
2019-05-06T12:52:24.550Z,52.70
2019-05-06T12:54:53.805Z,51.60
2019-05-06T12:57:18.829Z,50.30
2019-05-06T12:59:45.112Z,50.30
2019-05-06T13:02:13.289Z,50.00
2019-05-06T13:04:53.284Z,48.90
2019-05-06T13:07:07.374Z,50.20
2019-05-06T13:09:33.708Z,49.90
2019-05-06T13:12:00.123Z,50.00
2019-05-06T13:14:26.452Z,50.90
2019-05-06T13:16:53.293Z,50.90
2019-05-06T13:19:19.738Z,52.30
2019-05-06T13:21:46.039Z,52.80
2019-05-06T13:24:12.407Z,51.40
2019-05-06T13:26:38.690Z,50.40
2019-05-06T13:29:04.968Z,51.70
2019-05-06T13:31:32.634Z,52.20
2019-05-06T13:33:59.340Z,53.00
2019-05-06T13:36:25.799Z,52.30
2019-05-06T13:39:01.644Z,52.10
2019-05-06T13:41:22.054Z,49.80
2019-05-06T13:43:48.062Z,52.90
2019-05-06T13:46:14.458Z,51.00
2019-05-06T13:48:42.678Z,49.60
2019-05-06T13:51:08.699Z,49.50
2019-05-06T13:53:40.533Z,49.80
2019-05-06T13:56:04.704Z,50.40
2019-05-06T13:58:32.334Z,49.10
2019-05-06T14:00:58.850Z,50.00
2019-05-06T14:03:25.149Z,50.90
2019-05-06T14:05:52.106Z,49.30
2019-05-06T14:08:18.577Z,49.10
2019-05-06T14:10:56.520Z,49.70
2019-05-06T14:13:13.023Z,50.40
2019-05-06T14:15:39.261Z,49.30
2019-05-06T14:18:05.542Z,51.10
2019-05-06T14:20:33.533Z,51.10
2019-05-06T14:23:02.108Z,49.70
2019-05-06T14:25:27.829Z,49.40
2019-05-06T14:27:54.171Z,49.50
2019-05-06T14:30:22.651Z,50.90
2019-05-06T14:32:48.487Z,50.20
2019-05-06T14:35:14.772Z,48.50
2019-05-06T14:37:42.151Z,48.90
2019-05-06T14:40:08.647Z,48.70
2019-05-06T14:42:34.894Z,48.90
2019-05-06T14:45:01.263Z,49.00
2019-05-06T14:47:27.572Z,51.40
2019-05-06T14:49:53.893Z,49.90
2019-05-06T14:55:05.535Z,50.10
2019-05-06T14:57:32.379Z,51.00
2019-05-06T14:59:58.760Z,52.10
2019-05-06T15:02:26.633Z,51.90
2019-05-06T15:04:53.625Z,53.40
2019-05-06T15:07:22.030Z,52.90
2019-05-06T15:12:22.678Z,52.30
2019-05-06T15:14:48.136Z,52.80
2019-05-06T15:17:14.591Z,53.10
2019-05-06T15:22:13.062Z,53.60
2019-05-06T15:24:42.672Z,53.90
2019-05-06T15:27:09.224Z,55.70
2019-05-06T15:29:35.454Z,56.30
2019-05-06T15:34:33.920Z,54.30
2019-05-06T15:37:02.334Z,53.60
2019-05-06T15:39:28.203Z,53.00
2019-05-06T15:41:54.502Z,53.00
2019-05-06T15:44:23.136Z,53.90
2019-05-06T15:46:49.282Z,53.60
2019-05-06T15:49:15.563Z,54.40
2019-05-06T15:51:42.759Z,54.60
2019-05-06T15:54:09.252Z,53.40
2019-05-06T15:56:35.579Z,52.70
2019-05-06T15:59:02.645Z,52.20
2019-05-06T16:01:29.212Z,53.60
2019-05-06T16:03:55.445Z,53.70
2019-05-06T16:06:22.907Z,53.90
2019-05-06T16:08:49.712Z,54.50
2019-05-06T16:11:16.035Z,53.70
2019-05-06T16:13:45.050Z,54.90
2019-05-06T16:16:10.284Z,55.50
2019-05-06T16:18:36.555Z,55.20
2019-05-06T16:21:03.040Z,54.70
2019-05-06T16:23:29.390Z,55.20
2019-05-06T16:25:55.698Z,55.00
2019-05-06T16:28:22.495Z,55.80
2019-05-06T16:30:48.895Z,54.70
2019-05-06T16:33:18.869Z,55.20
2019-05-06T16:35:43.619Z,55.60
2019-05-06T16:38:09.936Z,56.60
2019-05-06T16:40:36.253Z,56.70
2019-05-06T16:43:02.705Z,57.00
2019-05-06T16:45:29.016Z,56.70
2019-05-06T16:47:55.349Z,55.90
2019-05-06T16:50:22.599Z,55.40
2019-05-06T16:52:49.068Z,55.70
2019-05-06T16:55:15.366Z,55.50
2019-05-06T16:57:42.845Z,54.50
2019-05-06T17:00:09.197Z,55.20
2019-05-06T17:02:35.460Z,54.90
2019-05-06T17:05:03.446Z,53.90
2019-05-06T17:07:29.708Z,55.30
2019-05-06T17:09:55.984Z,54.60
2019-05-06T17:12:22.491Z,54.90
2019-05-06T17:14:48.846Z,54.80
2019-05-06T17:17:15.109Z,56.40
2019-05-06T17:19:42.249Z,55.90
2019-05-06T17:22:08.638Z,56.70
2019-05-06T17:24:34.961Z,57.50
2019-05-06T17:27:02.675Z,56.40
2019-05-06T17:29:29.324Z,56.10
2019-05-06T17:31:55.553Z,56.30
2019-05-06T17:34:21.865Z,55.20
2019-05-06T17:36:48.118Z,55.80
2019-05-06T17:39:14.441Z,56.60
2019-05-06T17:41:48.374Z,55.20
2019-05-06T17:44:08.749Z,55.00
2019-05-06T17:46:34.988Z,55.50
2019-05-06T17:49:02.426Z,55.40
2019-05-06T17:51:29.048Z,55.80
2019-05-06T17:53:55.383Z,55.20
2019-05-06T17:56:22.254Z,56.70
2019-05-06T17:58:48.795Z,55.30
2019-05-06T18:01:15.111Z,55.10
2019-05-06T18:03:41.419Z,55.20
2019-05-06T18:06:13.739Z,56.00
2019-05-06T18:08:35.793Z,56.00
2019-05-06T18:11:02.111Z,56.00
2019-05-06T18:13:28.385Z,56.20
2019-05-06T18:15:54.698Z,56.40
2019-05-06T18:18:22.206Z,56.20
2019-05-06T18:20:48.959Z,56.40
2019-05-06T18:23:15.299Z,56.80
2019-05-06T18:25:43.028Z,57.00
2019-05-06T18:28:09.670Z,57.50
2019-05-06T18:30:37.743Z,57.90
2019-05-06T18:33:04.103Z,57.60
2019-05-06T18:35:30.447Z,58.20
2019-05-06T18:37:56.718Z,58.10
2019-05-06T18:40:23.293Z,58.30
2019-05-06T18:42:49.630Z,58.40
2019-05-06T18:45:15.966Z,58.50
2019-05-06T18:47:42.967Z,58.80
2019-05-06T18:50:09.262Z,59.10
2019-05-06T18:52:35.755Z,59.00
2019-05-06T18:55:02.033Z,59.40
2019-05-06T18:57:28.309Z,59.50
2019-05-06T18:59:54.580Z,59.50
2019-05-06T19:02:22.882Z,59.60
2019-05-06T19:04:49.071Z,59.70
2019-05-06T19:07:17.194Z,59.90
2019-05-06T19:09:43.705Z,61.70
2019-05-06T19:12:10.017Z,62.50
2019-05-06T19:14:36.285Z,63.10
2019-05-06T19:17:02.794Z,63.70
2019-05-06T19:19:29.265Z,63.90
2019-05-06T19:21:55.596Z,66.70
2019-05-06T19:24:22.643Z,67.20
2019-05-06T19:26:49.052Z,67.50
2019-05-06T19:29:15.302Z,69.70
2019-05-06T19:31:42.522Z,69.60
2019-05-06T19:34:09.658Z,70.00
2019-05-06T19:36:35.905Z,72.30
2019-05-06T19:39:04.573Z,73.00
2019-05-06T19:41:30.282Z,70.80
2019-05-06T19:43:56.585Z,72.60
2019-05-06T19:46:22.854Z,74.00
2019-05-06T19:48:49.555Z,74.50
2019-05-06T19:51:15.803Z,74.30
2019-05-06T19:53:42.844Z,73.30
2019-05-06T19:56:09.348Z,72.10
2019-05-06T19:58:35.621Z,73.10
2019-05-06T20:01:02.405Z,71.90
2019-05-06T20:03:28.879Z,71.70
2019-05-06T20:05:55.158Z,74.60
2019-05-06T20:08:23.152Z,72.60
2019-05-06T20:10:49.620Z,71.90
2019-05-06T20:13:15.894Z,71.30
2019-05-06T20:15:42.671Z,73.20
2019-05-06T20:18:09.375Z,74.10
2019-05-06T20:20:35.697Z,71.70
2019-05-06T20:23:02.655Z,72.50
2019-05-06T20:25:29.250Z,75.30
2019-05-06T20:27:55.574Z,74.20
2019-05-06T20:30:22.016Z,75.00
2019-05-06T20:32:48.408Z,76.80
2019-05-06T20:35:14.686Z,77.30
2019-05-06T20:37:42.547Z,77.20
2019-05-06T20:40:11.555Z,76.20
2019-05-06T20:42:36.997Z,76.90
2019-05-06T20:45:05.338Z,76.30
2019-05-06T20:47:32.651Z,77.70
2019-05-06T20:49:58.922Z,77.90
2019-05-06T20:52:25.605Z,78.60
2019-05-06T20:54:52.085Z,77.60
2019-05-06T20:57:18.322Z,79.80
2019-05-06T20:59:44.625Z,78.60
2019-05-06T21:02:12.490Z,78.50
2019-05-06T21:04:39.063Z,79.30
2019-05-06T21:07:05.379Z,78.20
2019-05-06T21:09:32.093Z,79.70
2019-05-06T21:11:58.521Z,80.80
2019-05-06T21:14:24.798Z,79.30
2019-05-06T21:16:51.066Z,79.20
2019-05-06T21:19:17.329Z,78.40
2019-05-06T21:21:43.760Z,77.80
2019-05-06T21:24:10.010Z,77.70
2019-05-06T21:26:36.384Z,78.00
2019-05-06T21:29:03.286Z,79.60
2019-05-06T21:31:29.781Z,78.10
2019-05-06T21:33:56.065Z,78.90
2019-05-06T21:36:23.049Z,78.10
2019-05-06T21:38:49.530Z,79.50
2019-05-06T21:41:17.763Z,78.70
2019-05-06T21:43:49.709Z,78.80
2019-05-06T21:46:12.980Z,79.60
2019-05-06T21:48:39.531Z,79.60
2019-05-06T21:51:06.359Z,79.20
2019-05-06T21:53:32.718Z,80.40
2019-05-06T21:55:59.070Z,79.60
2019-05-06T21:58:25.345Z,79.10
2019-05-06T22:00:52.652Z,78.50
2019-05-06T22:03:19.134Z,78.40
2019-05-06T22:05:45.416Z,81.40
2019-05-06T22:08:12.825Z,80.30
2019-05-06T22:10:39.320Z,79.70
2019-05-06T22:13:05.652Z,80.40
2019-05-06T22:15:32.504Z,82.10
2019-05-06T22:17:58.879Z,80.80
2019-05-06T22:20:25.162Z,80.30
2019-05-06T22:22:52.100Z,80.20
2019-05-06T22:25:18.483Z,80.70
2019-05-06T22:27:44.841Z,79.90
2019-05-06T22:30:11.245Z,79.80
2019-05-06T22:32:37.563Z,80.20
2019-05-06T22:35:04.710Z,79.60
2019-05-06T22:37:33.107Z,80.10
2019-05-06T22:39:59.172Z,80.40
2019-05-06T22:42:25.575Z,80.30
2019-05-06T22:44:51.902Z,79.70
2019-05-06T22:47:18.148Z,79.10
2019-05-06T22:49:44.422Z,81.20
2019-05-06T22:52:12.592Z,80.60
2019-05-06T22:54:38.681Z,80.10
2019-05-06T22:57:04.935Z,81.50
2019-05-06T22:59:33.011Z,81.60
2019-05-06T23:01:59.183Z,80.80
2019-05-06T23:04:25.482Z,82.20
2019-05-06T23:06:51.745Z,80.80
2019-05-06T23:09:18.030Z,80.80
2019-05-06T23:11:44.298Z,81.90
2019-05-06T23:14:12.492Z,81.80
2019-05-06T23:16:38.582Z,81.50
2019-05-06T23:19:04.874Z,82.30
2019-05-06T23:21:33.497Z,83.20
2019-05-06T23:24:02.170Z,83.20
2019-05-06T23:26:28.654Z,83.00
2019-05-06T23:28:54.892Z,82.90
2019-05-06T23:31:21.989Z,82.90
2019-05-06T23:33:49.211Z,82.80
2019-05-06T23:36:15.495Z,83.30
2019-05-06T23:38:43.066Z,83.30
2019-05-06T23:41:09.617Z,83.00
2019-05-06T23:43:35.887Z,83.70
2019-05-06T23:46:02.387Z,83.40
2019-05-06T23:48:28.818Z,83.40
2019-05-06T23:50:55.099Z,83.60
2019-05-06T23:53:22.951Z,83.30
2019-05-06T23:55:49.328Z,83.90
2019-05-06T23:58:15.578Z,82.90
